sensor_id;sensor_type;location;lat;lon;timestamp;P1;P2;P0
57049;PMS7003;42935;50.966;16.992;2022-11-11T00:01:09;44;33;22
57049;PMS7003;42935;50.966;16.992;2022-11-11T00:04:54;45;33;21
57049;PMS7003;42935;50.966;16.992;2022-11-11T00:08:08;46;33;22
57049;PMS7003;42935;50.966;16.992;2022-11-11T00:11:15;39;32;22
57049;PMS7003;42935;50.966;16.992;2022-11-11T00:14:55;43;33;22
57049;PMS7003;42935;50.966;16.992;2022-11-11T00:18:10;42;33;21
57049;PMS7003;42935;50.966;16.992;2022-11-11T00:21:58;42;29;19
57049;PMS7003;42935;50.966;16.992;2022-11-11T00:25:50;37;32;20
57049;PMS7003;42935;50.966;16.992;2022-11-11T00:28:58;45;31;20
57049;PMS7003;42935;50.966;16.992;2022-11-11T00:32:38;35;28;20
57049;PMS7003;42935;50.966;16.992;2022-11-11T00:36:17;36;30;21
57049;PMS7003;42935;50.966;16.992;2022-11-11T00:39:54;35;30;19
57049;PMS7003;42935;50.966;16.992;2022-11-11T00:43:32;41;31;20
57049;PMS7003;42935;50.966;16.992;2022-11-11T00:46:39;39;31;22
57049;PMS7003;42935;50.966;16.992;2022-11-11T00:50:31;35;28;18
57049;PMS7003;42935;50.966;16.992;2022-11-11T00:54:21;39;30;20
57049;PMS7003;42935;50.966;16.992;2022-11-11T00:58:05;40;33;21
57049;PMS7003;42935;50.966;16.992;2022-11-11T01:01:42;43;35;22
57049;PMS7003;42935;50.966;16.992;2022-11-11T01:05:24;46;33;21
57049;PMS7003;42935;50.966;16.992;2022-11-11T01:08:40;40;34;22
57049;PMS7003;42935;50.966;16.992;2022-11-11T01:12:19;43;35;20
57049;PMS7003;42935;50.966;16.992;2022-11-11T01:16:08;41;33;21
57049;PMS7003;42935;50.966;16.992;2022-11-11T01:19:26;43;34;23
57049;PMS7003;42935;50.966;16.992;2022-11-11T01:22:36;42;35;22
57049;PMS7003;42935;50.966;16.992;2022-11-11T01:26:18;41;33;21
57049;PMS7003;42935;50.966;16.992;2022-11-11T01:30:00;43;34;21
57049;PMS7003;42935;50.966;16.992;2022-11-11T01:33:46;43;34;21
57049;PMS7003;42935;50.966;16.992;2022-11-11T01:37:01;44;34;22
57049;PMS7003;42935;50.966;16.992;2022-11-11T01:40:09;33;26;15
57049;PMS7003;42935;50.966;16.992;2022-11-11T01:43:47;33;28;20
57049;PMS7003;42935;50.966;16.992;2022-11-11T01:47:23;34;29;19
57049;PMS7003;42935;50.966;16.992;2022-11-11T01:55:13;38;32;19
57049;PMS7003;42935;50.966;16.992;2022-11-11T01:59:01;31;27;20
57049;PMS7003;42935;50.966;16.992;2022-11-11T02:02:25;40;32;21
57049;PMS7003;42935;50.966;16.992;2022-11-11T02:06:08;38;32;21
57049;PMS7003;42935;50.966;16.992;2022-11-11T02:09:20;39;31;21
57049;PMS7003;42935;50.966;16.992;2022-11-11T02:12:43;38;31;20
57049;PMS7003;42935;50.966;16.992;2022-11-11T02:16:37;42;34;22
57049;PMS7003;42935;50.966;16.992;2022-11-11T02:20:18;37;32;20
57049;PMS7003;42935;50.966;16.992;2022-11-11T02:23:38;39;31;19
57049;PMS7003;42935;50.966;16.992;2022-11-11T02:27:24;33;25;17
57049;PMS7003;42935;50.966;16.992;2022-11-11T02:31:06;34;29;18
57049;PMS7003;42935;50.966;16.992;2022-11-11T02:34:51;36;29;18
57049;PMS7003;42935;50.966;16.992;2022-11-11T02:38:09;35;28;15
57049;PMS7003;42935;50.966;16.992;2022-11-11T02:41:50;32;25;16
57049;PMS7003;42935;50.966;16.992;2022-11-11T02:45:04;29;24;17
57049;PMS7003;42935;50.966;16.992;2022-11-11T02:48:13;35;28;17
57049;PMS7003;42935;50.966;16.992;2022-11-11T02:51:53;30;26;16
57049;PMS7003;42935;50.966;16.992;2022-11-11T02:55:03;27;24;15
57049;PMS7003;42935;50.966;16.992;2022-11-11T02:58:13;34;28;17
57049;PMS7003;42935;50.966;16.992;2022-11-11T03:01:23;29;26;17
57049;PMS7003;42935;50.966;16.992;2022-11-11T03:05:09;32;27;16
57049;PMS7003;42935;50.966;16.992;2022-11-11T03:08:18;28;24;15
57049;PMS7003;42935;50.966;16.992;2022-11-11T03:11:57;29;24;17
57049;PMS7003;42935;50.966;16.992;2022-11-11T03:15:07;29;25;16
57049;PMS7003;42935;50.966;16.992;2022-11-11T03:18:17;25;23;14
57049;PMS7003;42935;50.966;16.992;2022-11-11T03:21:36;33;26;16
57049;PMS7003;42935;50.966;16.992;2022-11-11T03:25:17;32;24;14
57049;PMS7003;42935;50.966;16.992;2022-11-11T03:29:09;34;26;16
57049;PMS7003;42935;50.966;16.992;2022-11-11T03:32:53;31;24;15
57049;PMS7003;42935;50.966;16.992;2022-11-11T03:36:37;29;22;14
57049;PMS7003;42935;50.966;16.992;2022-11-11T03:39:57;29;23;15
57049;PMS7003;42935;50.966;16.992;2022-11-11T03:43:38;27;23;15
57049;PMS7003;42935;50.966;16.992;2022-11-11T03:46:45;24;22;14
57049;PMS7003;42935;50.966;16.992;2022-11-11T03:50:29;29;24;15
57049;PMS7003;42935;50.966;16.992;2022-11-11T03:54:12;26;20;14
57049;PMS7003;42935;50.966;16.992;2022-11-11T03:58:00;28;24;15
57049;PMS7003;42935;50.966;16.992;2022-11-11T04:01:41;24;22;14
57049;PMS7003;42935;50.966;16.992;2022-11-11T04:04:57;25;20;15
57049;PMS7003;42935;50.966;16.992;2022-11-11T04:08:53;30;23;14
57049;PMS7003;42935;50.966;16.992;2022-11-11T04:12:42;30;24;15
57049;PMS7003;42935;50.966;16.992;2022-11-11T04:16:35;28;20;13
57049;PMS7003;42935;50.966;16.992;2022-11-11T04:19:49;29;24;14
57049;PMS7003;42935;50.966;16.992;2022-11-11T04:23:43;28;24;14
57049;PMS7003;42935;50.966;16.992;2022-11-11T04:26:52;25;21;13
57049;PMS7003;42935;50.966;16.992;2022-11-11T04:30:30;24;19;11
57049;PMS7003;42935;50.966;16.992;2022-11-11T04:34:11;28;23;13
57049;PMS7003;42935;50.966;16.992;2022-11-11T04:37:30;28;23;15
57049;PMS7003;42935;50.966;16.992;2022-11-11T04:41:16;25;21;14
57049;PMS7003;42935;50.966;16.992;2022-11-11T04:44:55;25;22;14
57049;PMS7003;42935;50.966;16.992;2022-11-11T04:48:48;30;22;12
57049;PMS7003;42935;50.966;16.992;2022-11-11T04:52:27;25;21;14
57049;PMS7003;42935;50.966;16.992;2022-11-11T04:55:33;28;23;15
57049;PMS7003;42935;50.966;16.992;2022-11-11T04:59:28;32;27;16
57049;PMS7003;42935;50.966;16.992;2022-11-11T05:03:11;24;20;14
57049;PMS7003;42935;50.966;16.992;2022-11-11T05:07:01;24;22;13
57049;PMS7003;42935;50.966;16.992;2022-11-11T05:10:24;27;21;14
57049;PMS7003;42935;50.966;16.992;2022-11-11T05:13:35;28;23;15
57049;PMS7003;42935;50.966;16.992;2022-11-11T05:17:03;28;21;13
57049;PMS7003;42935;50.966;16.992;2022-11-11T05:20:55;32;27;16
57049;PMS7003;42935;50.966;16.992;2022-11-11T05:24:11;31;22;14
57049;PMS7003;42935;50.966;16.992;2022-11-11T05:28:03;30;26;15
57049;PMS7003;42935;50.966;16.992;2022-11-11T05:31:51;30;26;15
57049;PMS7003;42935;50.966;16.992;2022-11-11T05:35:33;35;27;17
57049;PMS7003;42935;50.966;16.992;2022-11-11T05:38:42;30;25;16
57049;PMS7003;42935;50.966;16.992;2022-11-11T05:41:57;38;27;17
57049;PMS7003;42935;50.966;16.992;2022-11-11T05:45:36;33;26;17
57049;PMS7003;42935;50.966;16.992;2022-11-11T05:49:25;31;27;17
57049;PMS7003;42935;50.966;16.992;2022-11-11T05:53:09;41;31;18
57049;PMS7003;42935;50.966;16.992;2022-11-11T05:56:52;40;30;17
57049;PMS7003;42935;50.966;16.992;2022-11-11T06:00:10;39;32;19
57049;PMS7003;42935;50.966;16.992;2022-11-11T06:03:20;33;27;17
57049;PMS7003;42935;50.966;16.992;2022-11-11T06:06:36;38;28;18
57049;PMS7003;42935;50.966;16.992;2022-11-11T06:09:45;32;27;16
57049;PMS7003;42935;50.966;16.992;2022-11-11T06:13:24;33;27;20
57049;PMS7003;42935;50.966;16.992;2022-11-11T06:16:59;38;31;18
57049;PMS7003;42935;50.966;16.992;2022-11-11T06:20:09;40;31;19
57049;PMS7003;42935;50.966;16.992;2022-11-11T06:23:18;36;30;18
57049;PMS7003;42935;50.966;16.992;2022-11-11T06:26:29;38;31;19
57049;PMS7003;42935;50.966;16.992;2022-11-11T06:30:10;38;30;19
57049;PMS7003;42935;50.966;16.992;2022-11-11T06:34:01;36;29;18
57049;PMS7003;42935;50.966;16.992;2022-11-11T06:37:43;38;30;18
57049;PMS7003;42935;50.966;16.992;2022-11-11T06:41:35;37;30;18
57049;PMS7003;42935;50.966;16.992;2022-11-11T06:45:21;42;32;19
57049;PMS7003;42935;50.966;16.992;2022-11-11T06:49:09;44;32;19
57049;PMS7003;42935;50.966;16.992;2022-11-11T06:56:13;42;32;19
57049;PMS7003;42935;50.966;16.992;2022-11-11T06:59:58;37;31;20
57049;PMS7003;42935;50.966;16.992;2022-11-11T07:03:12;39;31;20
57049;PMS7003;42935;50.966;16.992;2022-11-11T07:06:22;37;31;20
57049;PMS7003;42935;50.966;16.992;2022-11-11T07:09:35;40;29;17
57049;PMS7003;42935;50.966;16.992;2022-11-11T07:12:52;38;32;19
57049;PMS7003;42935;50.966;16.992;2022-11-11T07:16:37;35;27;17
57049;PMS7003;42935;50.966;16.992;2022-11-11T07:19:43;38;29;18
57049;PMS7003;42935;50.966;16.992;2022-11-11T07:22:53;31;28;17
57049;PMS7003;42935;50.966;16.992;2022-11-11T07:26:03;38;30;17
57049;PMS7003;42935;50.966;16.992;2022-11-11T07:29:43;34;30;18
57049;PMS7003;42935;50.966;16.992;2022-11-11T07:33:29;35;30;18
57049;PMS7003;42935;50.966;16.992;2022-11-11T07:37:11;32;27;19
57049;PMS7003;42935;50.966;16.992;2022-11-11T07:40:54;33;27;18
57049;PMS7003;42935;50.966;16.992;2022-11-11T07:44:33;32;25;16
57049;PMS7003;42935;50.966;16.992;2022-11-11T07:48:11;35;29;18
57049;PMS7003;42935;50.966;16.992;2022-11-11T07:51:52;30;25;17
57049;PMS7003;42935;50.966;16.992;2022-11-11T07:55:04;30;25;16
57049;PMS7003;42935;50.966;16.992;2022-11-11T07:58:46;34;27;17
57049;PMS7003;42935;50.966;16.992;2022-11-11T08:01:56;35;29;17
57049;PMS7003;42935;50.966;16.992;2022-11-11T08:05:38;32;27;16
57049;PMS7003;42935;50.966;16.992;2022-11-11T08:09:19;30;27;17
57049;PMS7003;42935;50.966;16.992;2022-11-11T08:13:00;35;27;18
57049;PMS7003;42935;50.966;16.992;2022-11-11T08:16:50;27;22;15
57049;PMS7003;42935;50.966;16.992;2022-11-11T08:20:31;26;21;12
57049;PMS7003;42935;50.966;16.992;2022-11-11T08:24:14;26;22;14
57049;PMS7003;42935;50.966;16.992;2022-11-11T08:27:57;27;22;14
57049;PMS7003;42935;50.966;16.992;2022-11-11T08:31:39;30;24;15
57049;PMS7003;42935;50.966;16.992;2022-11-11T08:35:27;32;26;15
57049;PMS7003;42935;50.966;16.992;2022-11-11T08:39:08;31;22;15
57049;PMS7003;42935;50.966;16.992;2022-11-11T08:42:46;29;24;15
57049;PMS7003;42935;50.966;16.992;2022-11-11T08:46:27;31;22;15
57049;PMS7003;42935;50.966;16.992;2022-11-11T08:50:10;24;19;12
57049;PMS7003;42935;50.966;16.992;2022-11-11T08:53:54;22;19;14
57049;PMS7003;42935;50.966;16.992;2022-11-11T08:57:35;24;19;13
57049;PMS7003;42935;50.966;16.992;2022-11-11T09:00:51;28;21;14
57049;PMS7003;42935;50.966;16.992;2022-11-11T09:04:32;24;20;14
57049;PMS7003;42935;50.966;16.992;2022-11-11T09:07:47;23;20;13
57049;PMS7003;42935;50.966;16.992;2022-11-11T09:10:59;22;17;12
57049;PMS7003;42935;50.966;16.992;2022-11-11T09:14:06;27;19;13
57049;PMS7003;42935;50.966;16.992;2022-11-11T09:17:17;20;15;10
57049;PMS7003;42935;50.966;16.992;2022-11-11T09:20:57;20;18;12
57049;PMS7003;42935;50.966;16.992;2022-11-11T09:24:08;21;16;11
57049;PMS7003;42935;50.966;16.992;2022-11-11T09:27:23;25;21;13
57049;PMS7003;42935;50.966;16.992;2022-11-11T09:30:31;22;17;12
57049;PMS7003;42935;50.966;16.992;2022-11-11T09:34:09;24;17;12
57049;PMS7003;42935;50.966;16.992;2022-11-11T09:37:17;24;20;14
57049;PMS7003;42935;50.966;16.992;2022-11-11T09:40:43;22;17;11
57049;PMS7003;42935;50.966;16.992;2022-11-11T09:48:25;28;23;13
57049;PMS7003;42935;50.966;16.992;2022-11-11T09:52:13;25;21;13
57049;PMS7003;42935;50.966;16.992;2022-11-11T09:56:08;27;22;13
57049;PMS7003;42935;50.966;16.992;2022-11-11T09:59:57;29;21;13
57049;PMS7003;42935;50.966;16.992;2022-11-11T10:07:33;22;18;12
57049;PMS7003;42935;50.966;16.992;2022-11-11T10:11:21;25;20;12
57049;PMS7003;42935;50.966;16.992;2022-11-11T10:14:42;21;17;12
57049;PMS7003;42935;50.966;16.992;2022-11-11T10:18:36;19;16;11
57049;PMS7003;42935;50.966;16.992;2022-11-11T10:22:20;21;17;11
57049;PMS7003;42935;50.966;16.992;2022-11-11T10:25:32;21;17;12
57049;PMS7003;42935;50.966;16.992;2022-11-11T10:28:48;21;17;12
57049;PMS7003;42935;50.966;16.992;2022-11-11T10:32:33;17;16;12
57049;PMS7003;42935;50.966;16.992;2022-11-11T10:36:18;21;18;11
57049;PMS7003;42935;50.966;16.992;2022-11-11T10:42:55;24;16;12
57049;PMS7003;42935;50.966;16.992;2022-11-11T10:46:10;22;17;11
57049;PMS7003;42935;50.966;16.992;2022-11-11T10:50:10;27;19;12
57049;PMS7003;42935;50.966;16.992;2022-11-11T10:53:37;17;14;9
57049;PMS7003;42935;50.966;16.992;2022-11-11T10:56:58;19;15;10
57049;PMS7003;42935;50.966;16.992;2022-11-11T11:00:15;17;15;11
57049;PMS7003;42935;50.966;16.992;2022-11-11T11:04:09;15;10;8
57049;PMS7003;42935;50.966;16.992;2022-11-11T11:07:50;15;11;9
57049;PMS7003;42935;50.966;16.992;2022-11-11T11:15:22;17;12;9
57049;PMS7003;42935;50.966;16.992;2022-11-11T11:18:35;11;9;7
57049;PMS7003;42935;50.966;16.992;2022-11-11T11:21:47;11;10;7
57049;PMS7003;42935;50.966;16.992;2022-11-11T11:25:19;10;9;6
57049;PMS7003;42935;50.966;16.992;2022-11-11T11:28:55;12;11;8
57049;PMS7003;42935;50.966;16.992;2022-11-11T11:35:53;15;10;8
57049;PMS7003;42935;50.966;16.992;2022-11-11T11:39:36;16;12;10
57049;PMS7003;42935;50.966;16.992;2022-11-11T11:50:51;15;11;8
57049;PMS7003;42935;50.966;16.992;2022-11-11T11:54:40;13;9;7
57049;PMS7003;42935;50.966;16.992;2022-11-11T12:05:44;13;11;8
57049;PMS7003;42935;50.966;16.992;2022-11-11T12:13:22;12;11;8
57049;PMS7003;42935;50.966;16.992;2022-11-11T12:17:10;12;8;5
57049;PMS7003;42935;50.966;16.992;2022-11-11T12:21:00;13;10;7
57049;PMS7003;42935;50.966;16.992;2022-11-11T12:32:03;12;12;7
57049;PMS7003;42935;50.966;16.992;2022-11-11T12:42:38;14;12;8
57049;PMS7003;42935;50.966;16.992;2022-11-11T12:53:40;11;10;8
57049;PMS7003;42935;50.966;16.992;2022-11-11T12:57:12;13;10;7
57049;PMS7003;42935;50.966;16.992;2022-11-11T13:07:58;12;11;8
57049;PMS7003;42935;50.966;16.992;2022-11-11T13:15:41;16;14;10
57049;PMS7003;42935;50.966;16.992;2022-11-11T13:19:28;14;11;8
57049;PMS7003;42935;50.966;16.992;2022-11-11T13:23:18;15;12;9
57049;PMS7003;42935;50.966;16.992;2022-11-11T13:33:46;23;14;10
57049;PMS7003;42935;50.966;16.992;2022-11-11T13:37:30;20;15;10
57049;PMS7003;42935;50.966;16.992;2022-11-11T13:41:12;18;15;9
57049;PMS7003;42935;50.966;16.992;2022-11-11T13:45:02;19;13;9
57049;PMS7003;42935;50.966;16.992;2022-11-11T13:48:47;22;14;10
57049;PMS7003;42935;50.966;16.992;2022-11-11T13:52:32;17;13;10
57049;PMS7003;42935;50.966;16.992;2022-11-11T14:03:57;26;19;11
57049;PMS7003;42935;50.966;16.992;2022-11-11T14:11:32;23;15;11
57049;PMS7003;42935;50.966;16.992;2022-11-11T14:22:32;23;19;12
57049;PMS7003;42935;50.966;16.992;2022-11-11T14:26:19;22;18;12
57049;PMS7003;42935;50.966;16.992;2022-11-11T14:29:36;28;20;12
57049;PMS7003;42935;50.966;16.992;2022-11-11T14:37:21;25;21;13
57049;PMS7003;42935;50.966;16.992;2022-11-11T14:56:01;23;20;14
57049;PMS7003;42935;50.966;16.992;2022-11-11T14:59:44;25;20;14
57049;PMS7003;42935;50.966;16.992;2022-11-11T15:06:51;21;19;12
57049;PMS7003;42935;50.966;16.992;2022-11-11T15:26:21;30;27;16
57049;PMS7003;42935;50.966;16.992;2022-11-11T15:37:05;35;30;20
57049;PMS7003;42935;50.966;16.992;2022-11-11T15:40:52;42;33;20
57049;PMS7003;42935;50.966;16.992;2022-11-11T15:44:38;54;41;26
57049;PMS7003;42935;50.966;16.992;2022-11-11T15:56:08;55;42;27
57049;PMS7003;42935;50.966;16.992;2022-11-11T15:59:54;49;39;25
57049;PMS7003;42935;50.966;16.992;2022-11-11T16:03:14;40;33;21
57049;PMS7003;42935;50.966;16.992;2022-11-11T16:06:58;44;33;22
57049;PMS7003;42935;50.966;16.992;2022-11-11T16:10:41;43;34;22
57049;PMS7003;42935;50.966;16.992;2022-11-11T16:13:53;52;38;22
57049;PMS7003;42935;50.966;16.992;2022-11-11T16:17:45;48;36;23
57049;PMS7003;42935;50.966;16.992;2022-11-11T16:21:07;46;35;24
57049;PMS7003;42935;50.966;16.992;2022-11-11T16:24:26;53;40;24
57049;PMS7003;42935;50.966;16.992;2022-11-11T16:28:14;54;42;27
57049;PMS7003;42935;50.966;16.992;2022-11-11T16:31:54;58;43;27
57049;PMS7003;42935;50.966;16.992;2022-11-11T16:35:44;59;44;27
57049;PMS7003;42935;50.966;16.992;2022-11-11T16:39:26;58;42;26
57049;PMS7003;42935;50.966;16.992;2022-11-11T16:47:05;54;42;27
57049;PMS7003;42935;50.966;16.992;2022-11-11T16:50:25;53;39;25
57049;PMS7003;42935;50.966;16.992;2022-11-11T16:54:12;52;39;25
57049;PMS7003;42935;50.966;16.992;2022-11-11T16:58:00;52;40;24
57049;PMS7003;42935;50.966;16.992;2022-11-11T17:01:51;55;42;24
57049;PMS7003;42935;50.966;16.992;2022-11-11T17:12:47;56;42;26
57049;PMS7003;42935;50.966;16.992;2022-11-11T17:16:29;57;40;26
57049;PMS7003;42935;50.966;16.992;2022-11-11T17:20:14;52;41;25
57049;PMS7003;42935;50.966;16.992;2022-11-11T17:23:31;51;40;25
57049;PMS7003;42935;50.966;16.992;2022-11-11T17:28:54;52;38;22
57049;PMS7003;42935;50.966;16.992;2022-11-11T17:32:36;44;33;21
57049;PMS7003;42935;50.966;16.992;2022-11-11T17:36:16;47;36;24
57049;PMS7003;42935;50.966;16.992;2022-11-11T17:39:35;48;37;22
57049;PMS7003;42935;50.966;16.992;2022-11-11T17:43:27;45;37;24
57049;PMS7003;42935;50.966;16.992;2022-11-11T17:46:39;50;38;23
57049;PMS7003;42935;50.966;16.992;2022-11-11T17:49:54;48;36;22
57049;PMS7003;42935;50.966;16.992;2022-11-11T17:53:08;51;41;25
57049;PMS7003;42935;50.966;16.992;2022-11-11T17:56:53;42;34;21
57049;PMS7003;42935;50.966;16.992;2022-11-11T18:00:37;41;33;22
57049;PMS7003;42935;50.966;16.992;2022-11-11T18:03:55;45;34;22
57049;PMS7003;42935;50.966;16.992;2022-11-11T18:07:13;47;35;23
57049;PMS7003;42935;50.966;16.992;2022-11-11T18:14:42;47;37;23
57049;PMS7003;42935;50.966;16.992;2022-11-11T18:17:53;45;33;21
57049;PMS7003;42935;50.966;16.992;2022-11-11T18:21:32;43;34;22
57049;PMS7003;42935;50.966;16.992;2022-11-11T18:24:45;51;37;23
57049;PMS7003;42935;50.966;16.992;2022-11-11T18:28:29;48;36;23
57049;PMS7003;42935;50.966;16.992;2022-11-11T18:32:16;45;35;22
57049;PMS7003;42935;50.966;16.992;2022-11-11T18:36:07;45;34;22
57049;PMS7003;42935;50.966;16.992;2022-11-11T18:39:20;48;34;22
57049;PMS7003;42935;50.966;16.992;2022-11-11T18:43:03;44;35;23
57049;PMS7003;42935;50.966;16.992;2022-11-11T18:46:54;47;36;24
57049;PMS7003;42935;50.966;16.992;2022-11-11T18:50:35;50;39;23
57049;PMS7003;42935;50.966;16.992;2022-11-11T18:54:13;50;38;24
57049;PMS7003;42935;50.966;16.992;2022-11-11T18:57:57;51;39;23
57049;PMS7003;42935;50.966;16.992;2022-11-11T19:01:41;49;37;24
57049;PMS7003;42935;50.966;16.992;2022-11-11T19:05:00;46;34;22
57049;PMS7003;42935;50.966;16.992;2022-11-11T19:08:52;52;39;23
57049;PMS7003;42935;50.966;16.992;2022-11-11T19:12:39;48;38;24
57049;PMS7003;42935;50.966;16.992;2022-11-11T19:16:26;51;38;23
57049;PMS7003;42935;50.966;16.992;2022-11-11T19:20:06;48;37;23
57049;PMS7003;42935;50.966;16.992;2022-11-11T19:23:46;45;35;22
57049;PMS7003;42935;50.966;16.992;2022-11-11T19:27:27;48;36;22
57049;PMS7003;42935;50.966;16.992;2022-11-11T19:31:09;47;35;22
57049;PMS7003;42935;50.966;16.992;2022-11-11T19:34:50;44;34;22
57049;PMS7003;42935;50.966;16.992;2022-11-11T19:38:35;52;35;22
57049;PMS7003;42935;50.966;16.992;2022-11-11T19:42:19;51;36;23
57049;PMS7003;42935;50.966;16.992;2022-11-11T19:45:30;46;36;22
57049;PMS7003;42935;50.966;16.992;2022-11-11T19:48:47;43;34;22
57049;PMS7003;42935;50.966;16.992;2022-11-11T19:52:37;43;34;22
57049;PMS7003;42935;50.966;16.992;2022-11-11T19:56:20;49;36;23
57049;PMS7003;42935;50.966;16.992;2022-11-11T20:00:05;46;32;20
57049;PMS7003;42935;50.966;16.992;2022-11-11T20:03:53;41;32;20
57049;PMS7003;42935;50.966;16.992;2022-11-11T20:07:33;41;33;21
57049;PMS7003;42935;50.966;16.992;2022-11-11T20:10:39;39;30;21
57049;PMS7003;42935;50.966;16.992;2022-11-11T20:13:52;37;30;19
57049;PMS7003;42935;50.966;16.992;2022-11-11T20:17:32;36;31;20
57049;PMS7003;42935;50.966;16.992;2022-11-11T20:21:13;40;32;19
57049;PMS7003;42935;50.966;16.992;2022-11-11T20:24:24;32;28;18
57049;PMS7003;42935;50.966;16.992;2022-11-11T20:28:06;33;25;16
57049;PMS7003;42935;50.966;16.992;2022-11-11T20:31:16;32;25;17
57049;PMS7003;42935;50.966;16.992;2022-11-11T20:34:58;30;26;18
57049;PMS7003;42935;50.966;16.992;2022-11-11T20:38:09;33;27;18
57049;PMS7003;42935;50.966;16.992;2022-11-11T20:41:56;36;28;17
57049;PMS7003;42935;50.966;16.992;2022-11-11T20:45:07;34;27;15
57049;PMS7003;42935;50.966;16.992;2022-11-11T20:48:18;34;25;17
57049;PMS7003;42935;50.966;16.992;2022-11-11T20:51:57;35;27;17
57049;PMS7003;42935;50.966;16.992;2022-11-11T20:55:04;27;23;15
57049;PMS7003;42935;50.966;16.992;2022-11-11T20:58:46;35;27;16
57049;PMS7003;42935;50.966;16.992;2022-11-11T21:02:30;29;25;16
57049;PMS7003;42935;50.966;16.992;2022-11-11T21:06:16;34;27;16
57049;PMS7003;42935;50.966;16.992;2022-11-11T21:09:57;26;23;16
57049;PMS7003;42935;50.966;16.992;2022-11-11T21:13:42;30;26;15
57049;PMS7003;42935;50.966;16.992;2022-11-11T21:17:28;28;22;14
57049;PMS7003;42935;50.966;16.992;2022-11-11T21:21:11;27;21;16
57049;PMS7003;42935;50.966;16.992;2022-11-11T21:24:51;30;23;16
57049;PMS7003;42935;50.966;16.992;2022-11-11T21:28:35;30;24;16
57049;PMS7003;42935;50.966;16.992;2022-11-11T21:32:16;27;23;14
57049;PMS7003;42935;50.966;16.992;2022-11-11T21:36:00;30;23;14
57049;PMS7003;42935;50.966;16.992;2022-11-11T21:39:12;26;19;13
57049;PMS7003;42935;50.966;16.992;2022-11-11T21:42:55;29;22;15
57049;PMS7003;42935;50.966;16.992;2022-11-11T21:46:41;31;25;16
57049;PMS7003;42935;50.966;16.992;2022-11-11T21:50:20;23;21;14
57049;PMS7003;42935;50.966;16.992;2022-11-11T21:54:05;26;22;15
57049;PMS7003;42935;50.966;16.992;2022-11-11T21:57:50;34;24;16
57049;PMS7003;42935;50.966;16.992;2022-11-11T22:01:05;40;29;18
57049;PMS7003;42935;50.966;16.992;2022-11-11T22:04:21;39;31;19
57049;PMS7003;42935;50.966;16.992;2022-11-11T22:08:00;48;36;21
57049;PMS7003;42935;50.966;16.992;2022-11-11T22:11:49;45;33;20
57049;PMS7003;42935;50.966;16.992;2022-11-11T22:15:29;39;30;18
57049;PMS7003;42935;50.966;16.992;2022-11-11T22:19:10;31;24;17
57049;PMS7003;42935;50.966;16.992;2022-11-11T22:22:19;35;29;19
57049;PMS7003;42935;50.966;16.992;2022-11-11T22:29:46;38;31;18
57049;PMS7003;42935;50.966;16.992;2022-11-11T22:33:33;50;36;22
57049;PMS7003;42935;50.966;16.992;2022-11-11T22:37:14;55;42;26
57049;PMS7003;42935;50.966;16.992;2022-11-11T22:40:24;44;34;21
57049;PMS7003;42935;50.966;16.992;2022-11-11T22:44:07;39;32;20
57049;PMS7003;42935;50.966;16.992;2022-11-11T22:47:52;34;28;19
57049;PMS7003;42935;50.966;16.992;2022-11-11T22:51:32;32;24;17
57049;PMS7003;42935;50.966;16.992;2022-11-11T22:55:11;38;29;19
57049;PMS7003;42935;50.966;16.992;2022-11-11T22:58:56;47;36;22
57049;PMS7003;42935;50.966;16.992;2022-11-11T23:02:35;45;33;22
57049;PMS7003;42935;50.966;16.992;2022-11-11T23:06:16;31;24;16
57049;PMS7003;42935;50.966;16.992;2022-11-11T23:09:55;31;25;16
57049;PMS7003;42935;50.966;16.992;2022-11-11T23:13:07;39;31;19
57049;PMS7003;42935;50.966;16.992;2022-11-11T23:16:13;30;26;17
57049;PMS7003;42935;50.966;16.992;2022-11-11T23:19:28;36;29;18
57049;PMS7003;42935;50.966;16.992;2022-11-11T23:23:13;44;33;21
57049;PMS7003;42935;50.966;16.992;2022-11-11T23:26:51;34;29;19
57049;PMS7003;42935;50.966;16.992;2022-11-11T23:30:08;33;29;19
57049;PMS7003;42935;50.966;16.992;2022-11-11T23:33:48;33;29;20
57049;PMS7003;42935;50.966;16.992;2022-11-11T23:37:01;31;24;17
57049;PMS7003;42935;50.966;16.992;2022-11-11T23:40:41;29;23;16
57049;PMS7003;42935;50.966;16.992;2022-11-11T23:43:53;31;27;19
57049;PMS7003;42935;50.966;16.992;2022-11-11T23:47:41;35;28;16
57049;PMS7003;42935;50.966;16.992;2022-11-11T23:51:23;32;26;17
57049;PMS7003;42935;50.966;16.992;2022-11-11T23:54:31;26;21;15
57049;PMS7003;42935;50.966;16.992;2022-11-11T23:58:12;40;24;15
